Florence, Missouri
Current Conditions -  °F | °C
As of 3:53 PM on Monday 20 Oct 2014 (Local Time) from KDMO Reporting Station
Clear Clear  
Wind Chill: 75°   Ceiling: Unl
Heat Index: 75°   Visibility: 10mi
Dew Point: 43°   Wind: 10mph
Humidity: 32%   Direction: 310°NW
Pressure: 30.02"   Gusts: NA
Location:  38.59°N, 92.98°W
Report Text: KDMO 202053Z AUTO 31009KT 10SM CLR 24/06 A3002 RMK AO2 SLP161 T02390061 56010
Loading
Personal Weather Stations






























Interactive Weather Map
Tropical Storm Tracking
New forecast layout! Learn more

10-Day Weather Forecast

Advertisements
Track Severe Weather on mobile